Time;durP1;ratioP1;P1;durP2;ratioP2;P2;SDS_P1;SDS_P2;PMS_P1;PMS_P2;Temp;Humidity;BMP_temperature;BMP_pressure;BME280_temperature;BME280_humidity;BME280_pressure;Samples;Min_cycle;Max_cycle;Signal;HPM_P1;HPM_P2
2020/12/05 00:01:45;;;;;;;;;;;19.90;38.30;;;;;;491656;240;1304;-52
2020/12/05 00:03:47;;;;;;;;;;;19.80;38.40;;;;;;491619;240;961;-53
2020/12/05 00:05:48;;;;;;;;;;;19.80;38.50;;;;;;491593;240;1033;-53
2020/12/05 00:07:49;;;;;;;;;;;19.70;38.60;;;;;;491569;240;1026;-53
2020/12/05 00:09:51;;;;;;;;;;;19.70;38.70;;;;;;491767;240;1185;-53
2020/12/05 00:11:52;;;;;;;;;;;19.60;38.70;;;;;;491612;240;1054;-53
2020/12/05 00:13:53;;;;;;;;;;;19.60;38.80;;;;;;491654;240;1075;-53
2020/12/05 00:15:54;;;;;;;;;;;19.50;38.80;;;;;;491864;240;1176;-53
2020/12/05 00:17:56;;;;;;;;;;;19.40;38.90;;;;;;491623;240;1041;-53
2020/12/05 00:19:57;;;;;;;;;;;19.40;39.00;;;;;;491821;240;2191;-53
2020/12/05 00:21:58;;;;;;;;;;;19.40;39.10;;;;;;491617;240;1042;-53
2020/12/05 00:23:59;;;;;;;;;;;19.40;39.10;;;;;;491817;240;1041;-53
2020/12/05 00:26:01;;;;;;;;;;;19.30;39.20;;;;;;491805;240;1212;-53
2020/12/05 00:28:02;;;;;;;;;;;19.30;39.20;;;;;;491811;240;1062;-53
2020/12/05 00:30:03;;;;;;;;;;;19.30;39.30;;;;;;491639;240;1208;-53
2020/12/05 00:32:06;;;;;;;;;;;19.20;39.30;;;;;;491747;240;1104;-53
2020/12/05 00:34:06;;;;;;;;;;;19.20;39.40;;;;;;491983;241;2114;-53
2020/12/05 00:36:08;;;;;;;;;;;19.20;39.40;;;;;;491604;240;1553;-52
2020/12/05 00:38:10;;;;;;;;;;;19.10;39.50;;;;;;491638;240;1154;-53
2020/12/05 00:40:11;;;;;;;;;;;19.10;39.50;;;;;;491601;240;2192;-53
2020/12/05 00:42:12;;;;;;;;;;;19.10;39.60;;;;;;491626;240;1676;-53
2020/12/05 00:44:13;;;;;;;;;;;19.00;39.60;;;;;;491878;240;1063;-52
2020/12/05 00:46:15;;;;;;;;;;;19.00;39.60;;;;;;491532;240;1179;-53
2020/12/05 00:48:16;;;;;;;;;;;19.00;39.70;;;;;;491834;240;2335;-53
2020/12/05 00:50:17;;;;;;;;;;;19.00;39.70;;;;;;491806;240;1277;-53
2020/12/05 00:52:19;;;;;;;;;;;19.00;39.80;;;;;;491894;240;1179;-53
2020/12/05 00:54:20;;;;;;;;;;;18.90;39.70;;;;;;491669;240;1142;-53
2020/12/05 00:56:21;;;;;;;;;;;18.90;39.80;;;;;;491672;240;1204;-53
2020/12/05 00:58:22;;;;;;;;;;;18.90;39.80;;;;;;491680;240;1060;-53
2020/12/05 01:00:24;;;;;;;;;;;18.90;39.90;;;;;;491957;240;2240;-53
2020/12/05 01:02:25;;;;;;;;;;;18.80;39.80;;;;;;491645;240;1045;-53
2020/12/05 01:04:26;;;;;;;;;;;18.80;39.90;;;;;;491846;240;1093;-52
2020/12/05 01:06:27;;;;;;;;;;;18.80;39.90;;;;;;491597;240;983;-53
2020/12/05 01:08:29;;;;;;;;;;;18.80;40.00;;;;;;491773;240;1052;-53
2020/12/05 01:10:30;;;;;;;;;;;18.80;40.00;;;;;;491648;240;1145;-53
2020/12/05 01:12:31;;;;;;;;;;;18.80;40.00;;;;;;491671;240;1059;-53
2020/12/05 01:14:33;;;;;;;;;;;18.70;39.90;;;;;;491688;240;1037;-53
2020/12/05 01:16:34;;;;;;;;;;;18.80;40.00;;;;;;491653;240;1079;-53
2020/12/05 01:18:35;;;;;;;;;;;18.80;39.90;;;;;;491697;240;1063;-53
2020/12/05 01:20:36;;;;;;;;;;;18.80;39.80;;;;;;491643;240;2200;-53
2020/12/05 01:22:38;;;;;;;;;;;18.80;39.80;;;;;;491636;240;1072;-53
2020/12/05 01:24:39;;;;;;;;;;;18.80;38.50;;;;;;491633;238;1320;-52
2020/12/05 01:26:40;;;;;;;;;;;18.80;39.80;;;;;;491630;240;1175;-53
2020/12/05 01:28:42;;;;;;;;;;;18.80;39.80;;;;;;491669;240;1086;-52
2020/12/05 01:30:43;;;;;;;;;;;18.80;39.70;;;;;;491620;240;1063;-53
2020/12/05 01:32:44;;;;;;;;;;;18.80;39.70;;;;;;491777;240;1199;-52
2020/12/05 01:34:45;;;;;;;;;;;18.80;39.70;;;;;;491641;240;1063;-53
2020/12/05 01:36:47;;;;;;;;;;;18.80;39.70;;;;;;491976;240;1026;-53
2020/12/05 01:38:48;;;;;;;;;;;18.80;39.70;;;;;;491650;240;1042;-53
2020/12/05 01:40:50;;;;;;;;;;;18.80;39.80;;;;;;491597;240;2177;-53
2020/12/05 01:42:51;;;;;;;;;;;18.80;39.70;;;;;;491638;240;1047;-53
2020/12/05 01:44:52;;;;;;;;;;;18.80;39.70;;;;;;491655;240;1132;-53
2020/12/05 01:46:53;;;;;;;;;;;18.80;39.70;;;;;;491640;240;1354;-53
2020/12/05 01:48:54;;;;;;;;;;;18.80;39.80;;;;;;491679;240;1070;-53
2020/12/05 01:50:56;;;;;;;;;;;18.80;39.80;;;;;;491627;240;1175;-53
2020/12/05 01:52:57;;;;;;;;;;;18.70;39.80;;;;;;491685;240;1092;-52
2020/12/05 01:54:59;;;;;;;;;;;18.70;39.80;;;;;;491831;240;1177;-53
2020/12/05 01:57:00;;;;;;;;;;;18.70;39.80;;;;;;491610;240;1164;-53
2020/12/05 01:59:01;;;;;;;;;;;18.70;39.80;;;;;;491720;240;1057;-53
2020/12/05 02:01:02;;;;;;;;;;;18.70;39.80;;;;;;491714;240;2242;-53
2020/12/05 02:03:03;;;;;;;;;;;18.70;39.90;;;;;;491797;240;1100;-53
2020/12/05 02:05:05;;;;;;;;;;;18.70;39.90;;;;;;491724;240;1059;-53
2020/12/05 02:07:06;;;;;;;;;;;18.60;39.90;;;;;;491660;240;1511;-53
2020/12/05 02:09:07;;;;;;;;;;;18.60;39.90;;;;;;491797;240;1080;-53
2020/12/05 02:11:08;;;;;;;;;;;18.60;39.90;;;;;;491602;240;1290;-53
2020/12/05 02:13:10;;;;;;;;;;;18.60;40.00;;;;;;491638;240;1076;-53
2020/12/05 02:15:11;;;;;;;;;;;18.60;40.00;;;;;;491933;240;1095;-53
2020/12/05 02:17:12;;;;;;;;;;;18.60;40.00;;;;;;491646;240;1241;-52
2020/12/05 02:19:14;;;;;;;;;;;18.60;40.00;;;;;;491693;240;1086;-53
2020/12/05 02:21:15;;;;;;;;;;;18.60;40.10;;;;;;491747;240;1063;-53
2020/12/05 02:23:16;;;;;;;;;;;18.60;40.10;;;;;;491832;240;1051;-53
2020/12/05 02:25:17;;;;;;;;;;;18.50;40.10;;;;;;491891;240;1134;-53
2020/12/05 02:27:19;;;;;;;;;;;18.50;40.10;;;;;;491657;240;1296;-53
2020/12/05 02:29:20;;;;;;;;;;;18.50;40.10;;;;;;491621;240;1159;-53
2020/12/05 02:31:21;;;;;;;;;;;18.50;40.20;;;;;;491751;240;994;-53
2020/12/05 02:33:23;;;;;;;;;;;18.50;40.20;;;;;;491853;240;1078;-53
2020/12/05 02:35:24;;;;;;;;;;;18.50;40.20;;;;;;491629;240;1090;-53
2020/12/05 02:37:25;;;;;;;;;;;18.40;40.20;;;;;;491658;240;1268;-53
2020/12/05 02:39:26;;;;;;;;;;;18.40;40.20;;;;;;491941;240;2176;-53
2020/12/05 02:41:28;;;;;;;;;;;18.40;40.20;;;;;;491614;240;1199;-53
2020/12/05 02:43:29;;;;;;;;;;;18.40;40.30;;;;;;491627;240;1293;-53
2020/12/05 02:45:30;;;;;;;;;;;18.40;40.30;;;;;;491674;240;1207;-53
2020/12/05 02:47:31;;;;;;;;;;;18.40;40.30;;;;;;491587;240;1312;-52
2020/12/05 02:49:33;;;;;;;;;;;18.40;40.40;;;;;;491617;240;1118;-52
2020/12/05 02:51:34;;;;;;;;;;;18.30;40.30;;;;;;491749;240;1061;-53
2020/12/05 02:53:35;;;;;;;;;;;18.30;40.40;;;;;;491674;240;1184;-53
2020/12/05 02:55:37;;;;;;;;;;;18.30;40.40;;;;;;491654;240;1063;-53
2020/12/05 02:57:38;;;;;;;;;;;18.30;40.40;;;;;;491777;239;1347;-53
2020/12/05 02:59:39;;;;;;;;;;;18.30;40.40;;;;;;491695;240;2187;-53
2020/12/05 03:01:40;;;;;;;;;;;18.30;40.50;;;;;;492056;240;1047;-53
2020/12/05 03:03:42;;;;;;;;;;;18.20;40.50;;;;;;491664;240;1060;-53
2020/12/05 03:05:43;;;;;;;;;;;18.20;40.50;;;;;;491652;240;1055;-53
2020/12/05 03:07:44;;;;;;;;;;;18.20;40.50;;;;;;491661;240;1047;-53
2020/12/05 03:09:46;;;;;;;;;;;18.20;40.50;;;;;;491638;240;1063;-54
2020/12/05 03:11:47;;;;;;;;;;;18.20;40.60;;;;;;491617;240;1227;-53
2020/12/05 03:13:48;;;;;;;;;;;18.20;40.60;;;;;;491658;240;1236;-53
2020/12/05 03:15:49;;;;;;;;;;;18.20;40.60;;;;;;491619;240;1061;-53
2020/12/05 03:17:51;;;;;;;;;;;18.20;40.60;;;;;;491720;240;1104;-53
2020/12/05 03:19:52;;;;;;;;;;;18.10;40.60;;;;;;491612;240;2183;-53
2020/12/05 03:21:53;;;;;;;;;;;18.10;40.60;;;;;;491877;240;1084;-53
2020/12/05 03:23:55;;;;;;;;;;;18.10;40.60;;;;;;491706;240;1085;-53
2020/12/05 03:25:57;;;;;;;;;;;18.10;40.70;;;;;;491675;240;1018;-53
2020/12/05 03:27:58;;;;;;;;;;;18.10;40.70;;;;;;491648;240;1211;-53
2020/12/05 03:29:59;;;;;;;;;;;18.10;40.70;;;;;;491842;240;1069;-53
2020/12/05 03:32:03;;;;;;;;;;;18.10;40.70;;;;;;491750;240;1061;-53
2020/12/05 03:34:04;;;;;;;;;;;18.10;40.60;;;;;;491669;240;2151;-53
2020/12/05 03:36:03;;;;;;;;;;;18.10;40.50;;;;;;491612;242;2308;-53
2020/12/05 03:38:04;;;;;;;;;;;18.20;40.50;;;;;;491799;240;1069;-53
2020/12/05 03:40:06;;;;;;;;;;;18.20;40.40;;;;;;491606;240;2200;-53
2020/12/05 03:42:07;;;;;;;;;;;18.20;40.40;;;;;;491604;240;1116;-53
2020/12/05 03:44:08;;;;;;;;;;;18.20;40.30;;;;;;491611;240;1286;-54
2020/12/05 03:46:09;;;;;;;;;;;18.30;40.30;;;;;;491547;240;1175;-53
2020/12/05 03:48:12;;;;;;;;;;;18.30;40.30;;;;;;491751;240;1081;-53
2020/12/05 03:50:12;;;;;;;;;;;18.30;40.20;;;;;;491698;241;2171;-53
2020/12/05 03:52:13;;;;;;;;;;;18.30;40.20;;;;;;491955;240;1112;-53
2020/12/05 03:54:14;;;;;;;;;;;18.30;40.10;;;;;;491766;240;1073;-53
2020/12/05 03:56:16;;;;;;;;;;;18.40;40.10;;;;;;491996;240;1185;-53
2020/12/05 03:58:17;;;;;;;;;;;18.40;40.10;;;;;;491856;240;1178;-53
2020/12/05 04:00:18;;;;;;;;;;;18.40;40.00;;;;;;491932;240;2179;-53
2020/12/05 04:02:20;;;;;;;;;;;18.50;40.10;;;;;;491800;240;1103;-53
2020/12/05 04:04:21;;;;;;;;;;;18.50;40.00;;;;;;491674;240;960;-53
2020/12/05 04:06:22;;;;;;;;;;;18.50;40.00;;;;;;491649;240;1151;-53
2020/12/05 04:08:23;;;;;;;;;;;18.50;39.90;;;;;;491634;240;1120;-53
2020/12/05 04:10:25;;;;;;;;;;;18.50;39.90;;;;;;491580;240;1121;-53
2020/12/05 04:12:26;;;;;;;;;;;18.60;39.80;;;;;;491671;240;1075;-53
2020/12/05 04:14:27;;;;;;;;;;;18.60;39.80;;;;;;491753;240;1219;-53
2020/12/05 04:16:29;;;;;;;;;;;18.60;39.70;;;;;;491717;240;1062;-53
2020/12/05 04:18:30;;;;;;;;;;;18.60;39.70;;;;;;491655;240;1061;-53
2020/12/05 04:20:31;;;;;;;;;;;18.60;39.70;;;;;;491631;240;2196;-53
2020/12/05 04:22:32;;;;;;;;;;;18.70;39.70;;;;;;491648;240;1055;-53
2020/12/05 04:24:34;;;;;;;;;;;18.70;39.60;;;;;;491644;240;1074;-53
2020/12/05 04:26:35;;;;;;;;;;;18.70;39.60;;;;;;491652;240;1051;-53
2020/12/05 04:28:36;;;;;;;;;;;18.70;39.60;;;;;;491742;240;1212;-53
2020/12/05 04:30:37;;;;;;;;;;;18.70;39.50;;;;;;491640;240;1156;-53
2020/12/05 04:32:39;;;;;;;;;;;18.80;39.50;;;;;;491803;240;1120;-53
2020/12/05 04:34:40;;;;;;;;;;;18.80;39.50;;;;;;491680;240;1077;-53
2020/12/05 04:36:41;;;;;;;;;;;18.80;39.40;;;;;;491671;240;1047;-53
2020/12/05 04:38:43;;;;;;;;;;;18.80;39.40;;;;;;491656;240;1221;-53
2020/12/05 04:40:44;;;;;;;;;;;18.80;39.40;;;;;;491638;240;2203;-53
2020/12/05 04:42:45;;;;;;;;;;;18.80;39.30;;;;;;491607;240;1224;-54
2020/12/05 04:44:47;;;;;;;;;;;18.90;39.40;;;;;;491683;240;1205;-53
2020/12/05 04:46:48;;;;;;;;;;;18.90;39.40;;;;;;491632;240;1144;-53
2020/12/05 04:48:49;;;;;;;;;;;18.90;39.30;;;;;;491722;240;1170;-53
2020/12/05 04:50:51;;;;;;;;;;;18.90;39.30;;;;;;491619;240;1598;-53
2020/12/05 04:52:52;;;;;;;;;;;18.90;39.30;;;;;;491663;238;1193;-53
2020/12/05 04:54:53;;;;;;;;;;;18.90;39.30;;;;;;491735;240;1305;-54
2020/12/05 04:56:55;;;;;;;;;;;19.00;39.30;;;;;;491630;240;1556;-53
2020/12/05 04:58:56;;;;;;;;;;;19.00;39.20;;;;;;491921;238;1278;-52
2020/12/05 05:00:57;;;;;;;;;;;19.00;39.20;;;;;;491641;240;2183;-53
2020/12/05 05:02:58;;;;;;;;;;;19.00;39.20;;;;;;491847;240;1163;-53
2020/12/05 05:05:00;;;;;;;;;;;19.00;39.20;;;;;;491708;240;1065;-52
2020/12/05 05:07:01;;;;;;;;;;;19.00;39.20;;;;;;491626;240;1150;-53
2020/12/05 05:09:02;;;;;;;;;;;19.00;39.10;;;;;;491664;240;1067;-53
2020/12/05 05:11:04;;;;;;;;;;;19.00;39.10;;;;;;491676;240;1196;-53
2020/12/05 05:13:06;;;;;;;;;;;19.10;39.20;;;;;;491618;240;979;-52
2020/12/05 05:15:06;;;;;;;;;;;19.10;39.10;;;;;;491662;240;2131;-53
2020/12/05 05:17:08;;;;;;;;;;;19.10;39.10;;;;;;491651;240;1199;-54
2020/12/05 05:19:09;;;;;;;;;;;19.10;39.10;;;;;;491652;240;960;-53
2020/12/05 05:21:10;;;;;;;;;;;19.10;39.10;;;;;;491664;240;2172;-53
2020/12/05 05:23:12;;;;;;;;;;;19.10;39.00;;;;;;491654;240;1051;-53
2020/12/05 05:25:13;;;;;;;;;;;19.10;39.00;;;;;;491625;240;1081;-52
2020/12/05 05:27:14;;;;;;;;;;;19.10;39.00;;;;;;491629;240;1068;-53
2020/12/05 05:29:15;;;;;;;;;;;19.20;39.00;;;;;;491851;240;1125;-53
2020/12/05 05:31:21;;;;;;;;;;;19.20;39.00;;;;;;491616;240;974;-53
2020/12/05 05:33:18;;;;;;;;;;;19.20;39.00;;;;;;491546;242;2265;-52
2020/12/05 05:35:20;;;;;;;;;;;19.20;39.00;;;;;;491611;240;1120;-53
2020/12/05 05:37:21;;;;;;;;;;;19.20;38.90;;;;;;491611;240;1093;-53
2020/12/05 05:39:22;;;;;;;;;;;19.20;39.00;;;;;;491654;240;978;-53
2020/12/05 05:41:24;;;;;;;;;;;19.20;38.90;;;;;;491626;240;2188;-53
2020/12/05 05:43:25;;;;;;;;;;;19.30;38.90;;;;;;491766;240;1097;-53
2020/12/05 05:45:26;;;;;;;;;;;19.30;39.00;;;;;;491699;240;1161;-52
2020/12/05 05:47:27;;;;;;;;;;;19.30;38.90;;;;;;491637;240;1108;-53
2020/12/05 05:49:30;;;;;;;;;;;19.30;38.90;;;;;;491685;240;1063;-53
2020/12/05 05:51:31;;;;;;;;;;;19.30;38.90;;;;;;491752;240;1075;-53
2020/12/05 05:53:32;;;;;;;;;;;19.30;38.90;;;;;;491694;240;1010;-53
2020/12/05 05:55:34;;;;;;;;;;;19.30;38.90;;;;;;491681;240;1110;-53
2020/12/05 05:57:35;;;;;;;;;;;19.30;38.90;;;;;;491660;240;1048;-53
2020/12/05 05:59:36;;;;;;;;;;;19.30;38.80;;;;;;491845;240;1160;-53
2020/12/05 06:01:38;;;;;;;;;;;19.30;38.80;;;;;;491651;240;2200;-53
2020/12/05 06:03:39;;;;;;;;;;;19.30;38.80;;;;;;491816;240;1107;-53
2020/12/05 06:05:40;;;;;;;;;;;19.40;38.80;;;;;;491702;240;1052;-52
2020/12/05 06:07:41;;;;;;;;;;;19.40;38.80;;;;;;491743;240;1049;-53
2020/12/05 06:09:43;;;;;;;;;;;19.40;38.80;;;;;;491762;240;1088;-53
2020/12/05 06:11:44;;;;;;;;;;;19.40;38.80;;;;;;491592;240;1048;-53
2020/12/05 06:13:45;;;;;;;;;;;19.40;38.80;;;;;;491901;240;1045;-53
2020/12/05 06:15:47;;;;;;;;;;;19.40;38.70;;;;;;491615;240;1213;-53
2020/12/05 06:17:48;;;;;;;;;;;19.40;38.70;;;;;;491636;240;1180;-53
2020/12/05 06:19:49;;;;;;;;;;;19.40;38.70;;;;;;491621;240;1088;-53
2020/12/05 06:21:51;;;;;;;;;;;19.40;38.70;;;;;;491757;240;2180;-54
2020/12/05 06:23:52;;;;;;;;;;;19.40;38.70;;;;;;491772;240;1093;-53
2020/12/05 06:25:53;;;;;;;;;;;19.40;38.70;;;;;;491624;240;1009;-53
2020/12/05 06:27:55;;;;;;;;;;;19.40;38.60;;;;;;491698;240;992;-53
2020/12/05 06:29:56;;;;;;;;;;;19.40;38.60;;;;;;491617;240;1171;-54
2020/12/05 06:31:57;;;;;;;;;;;19.40;38.60;;;;;;491593;240;1117;-53
2020/12/05 06:33:58;;;;;;;;;;;19.40;38.60;;;;;;491640;240;999;-54
2020/12/05 06:36:00;;;;;;;;;;;19.50;38.60;;;;;;491599;240;1062;-53
2020/12/05 06:38:01;;;;;;;;;;;19.50;38.60;;;;;;491609;240;1045;-53
2020/12/05 06:40:02;;;;;;;;;;;19.50;38.60;;;;;;491853;240;957;-52
2020/12/05 06:42:04;;;;;;;;;;;19.50;38.60;;;;;;491571;240;2183;-53
2020/12/05 06:44:05;;;;;;;;;;;19.50;38.60;;;;;;491966;240;1115;-53
2020/12/05 06:46:06;;;;;;;;;;;19.50;38.50;;;;;;491638;240;1221;-53
2020/12/05 06:48:08;;;;;;;;;;;19.50;38.60;;;;;;491620;240;1069;-53
2020/12/05 06:50:09;;;;;;;;;;;19.60;38.60;;;;;;491875;240;1119;-53
2020/12/05 06:52:10;;;;;;;;;;;19.60;38.60;;;;;;491832;240;1068;-53
2020/12/05 06:54:12;;;;;;;;;;;19.60;38.60;;;;;;491627;240;1099;-53
2020/12/05 06:56:13;;;;;;;;;;;19.60;38.60;;;;;;491588;240;1257;-53
2020/12/05 06:58:14;;;;;;;;;;;19.60;38.60;;;;;;491648;240;1019;-53
2020/12/05 07:00:16;;;;;;;;;;;19.60;38.60;;;;;;491655;240;1155;-53
2020/12/05 07:02:17;;;;;;;;;;;19.60;38.60;;;;;;491634;240;2176;-53
2020/12/05 07:04:18;;;;;;;;;;;19.60;38.60;;;;;;491723;240;1236;-53
2020/12/05 07:06:20;;;;;;;;;;;19.60;38.60;;;;;;491589;240;1102;-53
2020/12/05 07:08:21;;;;;;;;;;;19.60;38.50;;;;;;491688;240;1294;-53
2020/12/05 07:10:22;;;;;;;;;;;19.60;38.50;;;;;;491713;240;1065;-53
2020/12/05 07:12:24;;;;;;;;;;;19.60;38.50;;;;;;491719;240;1088;-53
2020/12/05 07:14:26;;;;;;;;;;;19.60;38.50;;;;;;491639;240;1032;-53
2020/12/05 07:16:27;;;;;;;;;;;19.60;38.50;;;;;;491556;240;1261;-54
2020/12/05 07:18:28;;;;;;;;;;;19.60;38.50;;;;;;491784;240;1067;-53
2020/12/05 07:20:30;;;;;;;;;;;19.60;38.50;;;;;;491860;240;1275;-53
2020/12/05 07:22:31;;;;;;;;;;;19.60;38.50;;;;;;491674;240;2199;-53
2020/12/05 07:24:32;;;;;;;;;;;19.60;38.50;;;;;;491608;240;1015;-53
2020/12/05 07:26:33;;;;;;;;;;;19.60;38.40;;;;;;491569;240;1178;-53
2020/12/05 07:28:35;;;;;;;;;;;19.70;38.50;;;;;;491794;240;1091;-53
2020/12/05 07:30:36;;;;;;;;;;;19.70;38.50;;;;;;491599;240;1319;-53
2020/12/05 07:32:37;;;;;;;;;;;19.70;38.50;;;;;;491638;240;1041;-53
2020/12/05 07:34:39;;;;;;;;;;;19.70;38.50;;;;;;491676;240;1077;-52
2020/12/05 07:36:40;;;;;;;;;;;19.70;38.40;;;;;;491643;240;1107;-53
2020/12/05 07:38:41;;;;;;;;;;;19.70;38.40;;;;;;491783;240;1025;-53
2020/12/05 07:40:42;;;;;;;;;;;19.70;38.40;;;;;;491663;240;1320;-53
2020/12/05 07:42:44;;;;;;;;;;;19.70;38.40;;;;;;491641;240;2191;-53
2020/12/05 07:44:45;;;;;;;;;;;19.70;38.40;;;;;;491645;240;1054;-53
2020/12/05 07:46:46;;;;;;;;;;;19.70;38.50;;;;;;491632;240;1187;-53
2020/12/05 07:48:47;;;;;;;;;;;19.70;38.40;;;;;;491805;240;977;-53
2020/12/05 07:50:49;;;;;;;;;;;19.70;38.40;;;;;;491592;240;1050;-53
2020/12/05 07:52:50;;;;;;;;;;;19.70;38.40;;;;;;491576;240;1080;-53
2020/12/05 07:54:55;;;;;;;;;;;19.70;38.40;;;;;;491609;240;1114;-53
2020/12/05 07:56:53;;;;;;;;;;;19.80;38.50;;;;;;491686;241;2125;-54
2020/12/05 07:58:54;;;;;;;;;;;19.80;38.40;;;;;;491658;240;1064;-53
2020/12/05 08:00:56;;;;;;;;;;;19.80;38.50;;;;;;491866;240;1167;-53
2020/12/05 08:02:57;;;;;;;;;;;19.80;38.40;;;;;;491616;240;2168;-53
2020/12/05 08:04:58;;;;;;;;;;;19.80;38.40;;;;;;491762;240;1031;-53
2020/12/05 08:06:59;;;;;;;;;;;19.80;38.40;;;;;;491910;240;1217;-53
2020/12/05 08:09:01;;;;;;;;;;;19.80;38.40;;;;;;491675;240;1079;-54
2020/12/05 08:11:02;;;;;;;;;;;19.80;38.40;;;;;;491765;240;1053;-54
2020/12/05 08:13:03;;;;;;;;;;;19.80;38.40;;;;;;491647;240;1078;-54
2020/12/05 08:15:04;;;;;;;;;;;19.80;38.40;;;;;;491754;240;1051;-53
2020/12/05 08:17:06;;;;;;;;;;;19.80;38.40;;;;;;491642;240;1173;-53
2020/12/05 08:19:07;;;;;;;;;;;19.80;38.40;;;;;;491623;240;1114;-54
2020/12/05 08:21:08;;;;;;;;;;;19.80;38.40;;;;;;491755;240;1201;-53
2020/12/05 08:23:10;;;;;;;;;;;19.80;38.40;;;;;;491606;240;2192;-53
2020/12/05 08:25:11;;;;;;;;;;;19.80;38.30;;;;;;491930;240;1070;-52
2020/12/05 08:27:12;;;;;;;;;;;19.80;38.40;;;;;;491536;240;1193;-53
2020/12/05 08:29:13;;;;;;;;;;;19.80;38.30;;;;;;491618;240;1084;-53
2020/12/05 08:31:15;;;;;;;;;;;19.80;38.30;;;;;;491862;240;1186;-53
2020/12/05 08:33:16;;;;;;;;;;;19.80;38.30;;;;;;491606;240;1302;-53
2020/12/05 08:35:19;;;;;;;;;;;19.80;38.30;;;;;;491810;240;1050;-53
2020/12/05 08:37:19;;;;;;;;;;;19.80;38.30;;;;;;491635;242;2289;-53
2020/12/05 08:39:20;;;;;;;;;;;19.80;38.30;;;;;;491661;240;1085;-53
2020/12/05 08:41:21;;;;;;;;;;;19.80;38.30;;;;;;491640;240;1300;-53
2020/12/05 08:43:22;;;;;;;;;;;19.80;38.30;;;;;;491641;240;2191;-54
2020/12/05 08:45:24;;;;;;;;;;;19.80;38.30;;;;;;491625;240;1050;-53
2020/12/05 08:47:25;;;;;;;;;;;19.90;38.40;;;;;;491659;240;1194;-53
2020/12/05 08:49:26;;;;;;;;;;;19.80;38.30;;;;;;491671;240;1055;-53
2020/12/05 08:51:27;;;;;;;;;;;19.80;38.30;;;;;;491747;240;1043;-53
2020/12/05 08:53:29;;;;;;;;;;;19.90;38.30;;;;;;491732;240;1041;-53
2020/12/05 08:55:30;;;;;;;;;;;19.90;38.30;;;;;;491607;240;1077;-53
2020/12/05 08:57:31;;;;;;;;;;;19.80;38.30;;;;;;491578;240;961;-53
2020/12/05 08:59:33;;;;;;;;;;;19.90;38.30;;;;;;491655;240;1049;-53
2020/12/05 09:01:34;;;;;;;;;;;19.90;38.30;;;;;;491565;240;2215;-53
2020/12/05 09:03:35;;;;;;;;;;;19.90;38.30;;;;;;491604;240;1085;-53
2020/12/05 09:05:36;;;;;;;;;;;19.90;38.30;;;;;;491703;240;1088;-54
2020/12/05 09:07:38;;;;;;;;;;;19.90;38.30;;;;;;491575;240;1077;-53
2020/12/05 09:09:39;;;;;;;;;;;19.90;38.30;;;;;;491624;240;1091;-53
2020/12/05 09:11:41;;;;;;;;;;;19.90;38.30;;;;;;491628;240;1072;-54
2020/12/05 09:13:42;;;;;;;;;;;19.90;38.30;;;;;;491713;240;978;-53
2020/12/05 09:15:43;;;;;;;;;;;19.90;38.30;;;;;;491663;240;1015;-53
2020/12/05 09:17:45;;;;;;;;;;;20.00;38.30;;;;;;491636;239;1338;-53
2020/12/05 09:19:46;;;;;;;;;;;19.90;38.30;;;;;;491638;240;1070;-54
2020/12/05 09:21:47;;;;;;;;;;;19.90;38.20;;;;;;491652;240;2191;-53
2020/12/05 09:23:49;;;;;;;;;;;20.00;38.30;;;;;;491662;240;1074;-54
2020/12/05 09:25:51;;;;;;;;;;;20.00;38.80;;;;;;491845;240;1184;-53
2020/12/05 09:27:51;;;;;;;;;;;20.00;38.30;;;;;;491635;240;2233;-53
2020/12/05 09:29:52;;;;;;;;;;;20.00;38.10;;;;;;491610;240;1093;-53
2020/12/05 09:31:55;;;;;;;;;;;20.00;38.10;;;;;;491676;240;1124;-53
2020/12/05 09:33:55;;;;;;;;;;;20.00;38.30;;;;;;491815;240;2336;-53
2020/12/05 09:35:56;;;;;;;;;;;19.90;38.30;;;;;;491610;240;1064;-53
2020/12/05 09:38:02;;;;;;;;;;;19.90;38.50;;;;;;491560;240;1289;-53
2020/12/05 09:39:59;;;;;;;;;;;19.80;38.60;;;;;;491520;242;2200;-53
2020/12/05 09:42:00;;;;;;;;;;;19.70;38.70;;;;;;491591;240;2173;-53
2020/12/05 09:44:01;;;;;;;;;;;19.70;38.70;;;;;;491648;240;1063;-53
2020/12/05 09:46:03;;;;;;;;;;;19.60;38.80;;;;;;491648;240;1076;-53
2020/12/05 09:48:04;;;;;;;;;;;19.60;39.00;;;;;;491607;240;1218;-53
2020/12/05 09:50:05;;;;;;;;;;;19.50;39.00;;;;;;491798;240;1039;-53
2020/12/05 09:52:07;;;;;;;;;;;19.50;39.10;;;;;;491855;240;1293;-53
2020/12/05 09:54:08;;;;;;;;;;;19.40;39.10;;;;;;491723;240;1022;-53
2020/12/05 09:56:09;;;;;;;;;;;19.40;39.30;;;;;;491627;240;1055;-53
2020/12/05 09:58:10;;;;;;;;;;;19.40;39.30;;;;;;491609;240;1075;-53
2020/12/05 10:00:12;;;;;;;;;;;19.30;39.40;;;;;;491580;240;1097;-53
2020/12/05 10:02:13;;;;;;;;;;;19.30;39.50;;;;;;491540;240;2216;-53
2020/12/05 10:04:16;;;;;;;;;;;19.20;39.50;;;;;;491591;240;1075;-52
2020/12/05 10:06:16;;;;;;;;;;;19.20;39.60;;;;;;491595;240;2206;-53
2020/12/05 10:08:17;;;;;;;;;;;19.20;39.70;;;;;;491619;240;1023;-53
2020/12/05 10:10:18;;;;;;;;;;;19.10;39.70;;;;;;491629;240;1077;-53
2020/12/05 10:12:19;;;;;;;;;;;19.10;39.70;;;;;;491940;240;1038;-53
2020/12/05 10:14:21;;;;;;;;;;;19.00;39.80;;;;;;491684;240;1093;-53
2020/12/05 10:16:22;;;;;;;;;;;19.00;39.80;;;;;;491875;240;1048;-52
2020/12/05 10:18:23;;;;;;;;;;;19.00;39.90;;;;;;491674;240;1211;-53
2020/12/05 10:20:27;;;;;;;;;;;19.00;39.90;;;;;;491588;240;995;-53
2020/12/05 10:22:26;;;;;;;;;;;18.90;39.90;;;;;;491528;241;2272;-53
2020/12/05 10:24:27;;;;;;;;;;;18.90;40.00;;;;;;491737;240;1062;-52
2020/12/05 10:26:28;;;;;;;;;;;18.90;40.00;;;;;;491575;240;1351;-53
2020/12/05 10:28:30;;;;;;;;;;;18.90;40.10;;;;;;491595;240;1059;-53
2020/12/05 10:30:31;;;;;;;;;;;18.90;40.10;;;;;;491575;240;1189;-53
2020/12/05 10:32:32;;;;;;;;;;;18.80;40.10;;;;;;491541;240;1179;-53
2020/12/05 10:34:33;;;;;;;;;;;18.80;40.20;;;;;;491605;240;1084;-53
2020/12/05 10:36:35;;;;;;;;;;;18.80;40.20;;;;;;491571;240;1061;-53
2020/12/05 10:38:36;;;;;;;;;;;18.80;40.20;;;;;;491552;240;1023;-53
2020/12/05 10:40:37;;;;;;;;;;;18.80;40.30;;;;;;491663;240;1033;-53
2020/12/05 10:42:39;;;;;;;;;;;18.80;40.30;;;;;;491601;240;2176;-53
2020/12/05 10:44:40;;;;;;;;;;;18.70;40.30;;;;;;491604;240;1069;-53
2020/12/05 10:46:41;;;;;;;;;;;18.70;40.30;;;;;;491561;240;1288;-53
2020/12/05 10:48:42;;;;;;;;;;;18.70;40.40;;;;;;491579;240;1191;-53
2020/12/05 10:50:44;;;;;;;;;;;18.60;40.30;;;;;;491712;240;1035;-53
2020/12/05 10:52:45;;;;;;;;;;;18.60;40.40;;;;;;492019;240;1189;-53
2020/12/05 10:54:47;;;;;;;;;;;18.60;40.40;;;;;;491828;240;1092;-53
2020/12/05 10:56:48;;;;;;;;;;;18.60;40.40;;;;;;491754;240;1210;-53
2020/12/05 10:58:49;;;;;;;;;;;18.60;40.40;;;;;;491638;240;1073;-53
2020/12/05 11:00:50;;;;;;;;;;;18.60;40.50;;;;;;491586;240;1072;-53
2020/12/05 11:02:52;;;;;;;;;;;18.60;40.50;;;;;;491574;240;2188;-53
2020/12/05 11:04:53;;;;;;;;;;;18.60;40.50;;;;;;491665;240;1065;-53
2020/12/05 11:06:54;;;;;;;;;;;18.60;40.50;;;;;;491817;240;1314;-53
2020/12/05 11:08:56;;;;;;;;;;;18.50;40.50;;;;;;491643;240;1157;-53
2020/12/05 11:10:57;;;;;;;;;;;18.50;40.50;;;;;;491562;240;1269;-53
2020/12/05 11:12:58;;;;;;;;;;;18.50;40.60;;;;;;491744;240;1170;-53
2020/12/05 11:14:59;;;;;;;;;;;18.50;40.60;;;;;;491570;240;1184;-53
2020/12/05 11:17:01;;;;;;;;;;;18.40;40.60;;;;;;491571;240;1136;-53
2020/12/05 11:19:02;;;;;;;;;;;18.40;40.60;;;;;;491584;240;1173;-53
2020/12/05 11:21:03;;;;;;;;;;;18.40;40.60;;;;;;491580;240;1297;-53
2020/12/05 11:23:04;;;;;;;;;;;18.40;40.60;;;;;;491551;240;2187;-53
2020/12/05 11:25:06;;;;;;;;;;;18.40;40.60;;;;;;491548;240;1227;-53
2020/12/05 11:27:07;;;;;;;;;;;18.40;40.60;;;;;;491639;240;1043;-53
2020/12/05 11:29:08;;;;;;;;;;;18.40;40.70;;;;;;491567;240;1173;-53
2020/12/05 11:31:10;;;;;;;;;;;18.40;40.70;;;;;;491522;240;1176;-53
2020/12/05 11:33:11;;;;;;;;;;;18.40;40.70;;;;;;491609;240;1209;-53
2020/12/05 11:35:12;;;;;;;;;;;18.40;40.70;;;;;;491547;240;1031;-53
2020/12/05 11:37:13;;;;;;;;;;;18.40;40.80;;;;;;491582;240;1151;-53
2020/12/05 11:39:15;;;;;;;;;;;18.30;40.70;;;;;;491623;240;1011;-53
2020/12/05 11:41:16;;;;;;;;;;;18.30;40.70;;;;;;491605;240;1275;-53
2020/12/05 11:43:17;;;;;;;;;;;18.30;40.70;;;;;;491832;240;2196;-53
2020/12/05 11:45:19;;;;;;;;;;;18.30;40.70;;;;;;491606;240;1108;-53
2020/12/05 11:47:20;;;;;;;;;;;18.30;40.70;;;;;;491613;240;1280;-52
2020/12/05 11:49:21;;;;;;;;;;;18.30;40.80;;;;;;491716;240;1201;-53
2020/12/05 11:51:22;;;;;;;;;;;18.30;40.80;;;;;;491717;240;1260;-52
2020/12/05 11:53:24;;;;;;;;;;;18.30;40.80;;;;;;491832;240;1019;-53
2020/12/05 11:55:25;;;;;;;;;;;18.30;40.80;;;;;;491823;240;988;-53
2020/12/05 11:57:26;;;;;;;;;;;18.20;40.80;;;;;;491638;240;1323;-52